Borrego Springs, California
Current Conditions -  °F | °C
As of 8:52 PM on Friday 24 Oct 2014 (Local Time) from KTRM Reporting Station
Clear Clear  
Wind Chill: 70°   Ceiling: Unl
Heat Index: 70°   Visibility: 10mi
Dew Point: 52°   Wind: 6mph
Humidity: 53%   Direction: 310°NW
Pressure: 29.88"   Gusts: NA
Location:  33.26°N, 116.38°W
Report Text: KTRM 250352Z AUTO 31005KT 10SM CLR 21/11 A2988 RMK AO2 SLP119 T02110111 TSNO
Loading
Personal Weather Stations






























Interactive Weather Map
Tropical Storm Tracking
New forecast layout! Learn more

10-Day Weather Forecast

Advertisements
Track Severe Weather on mobile